Time;durP1;ratioP1;P1;durP2;ratioP2;P2;SDS_P1;SDS_P2;PMS_P1;PMS_P2;Temp;Humidity;BMP_temperature;BMP_pressure;BME280_temperature;BME280_humidity;BME280_pressure;Samples;Min_cycle;Max_cycle;Signal;HPM_P1;HPM_P2
2021/01/30 00:01:15;;;;;;;15.40;11.83;;;;;;;2.21;nan;98526.38;5068337;28;20515;-62
2021/01/30 00:03:42;;;;;;;19.83;14.67;;;;;;;2.21;nan;98532.47;5072717;28;20428;-61
2021/01/30 00:06:08;;;;;;;21.63;16.40;;;;;;;2.09;nan;98551.94;5070103;28;20476;-62
2021/01/30 00:08:35;;;;;;;22.73;15.57;;;;;;;1.93;nan;98557.69;5071453;28;20457;-62
2021/01/30 00:11:01;;;;;;;17.23;13.93;;;;;;;1.77;nan;98570.44;5070840;28;20547;-61
2021/01/30 00:13:27;;;;;;;25.07;18.20;;;;;;;2.04;nan;98576.06;5072029;28;20443;-61
2021/01/30 00:15:54;;;;;;;17.60;15.17;;;;;;;1.56;nan;98586.19;5063205;28;20526;-61
2021/01/30 00:18:20;;;;;;;22.03;17.67;;;;;;;1.31;nan;98585.53;5077722;28;20529;-61
2021/01/30 00:20:47;;;;;;;21.50;16.30;;;;;;;1.43;nan;98600.34;5081877;28;21260;-62
2021/01/30 00:23:13;;;;;;;22.27;17.60;;;;;;;1.52;nan;98605.84;5082123;28;20441;-61
2021/01/30 00:25:39;;;;;;;19.13;16.47;;;;;;;1.25;nan;98607.09;5079463;28;20490;-60
2021/01/30 00:28:07;;;;;;;19.80;16.90;;;;;;;1.20;nan;98603.97;5064864;28;20453;-61
2021/01/30 00:30:33;;;;;;;23.13;18.57;;;;;;;1.32;nan;98613.56;5072054;28;20487;-61
2021/01/30 00:33:01;;;;;;;17.97;14.37;;;;;;;1.24;nan;98608.88;5064191;28;20463;-61
2021/01/30 00:35:30;;;;;;;21.27;17.07;;;;;;;1.35;nan;98621.19;5061435;28;20884;-61
2021/01/30 00:37:56;;;;;;;22.53;17.20;;;;;;;1.11;nan;98632.72;5075313;28;20444;-61
2021/01/30 00:40:23;;;;;;;20.87;17.03;;;;;;;1.19;nan;98626.00;5075154;28;20456;-61
2021/01/30 00:42:49;;;;;;;21.87;17.70;;;;;;;1.11;nan;98621.34;5077873;28;20440;-62
2021/01/30 00:45:17;;;;;;;23.40;17.87;;;;;;;0.98;nan;98613.56;5064068;28;20485;-61
2021/01/30 00:47:43;;;;;;;21.57;16.10;;;;;;;1.06;nan;98631.38;5063633;28;20510;-62
2021/01/30 00:50:12;;;;;;;19.83;15.10;;;;;;;1.06;nan;98634.88;5063818;28;20463;-62
2021/01/30 00:52:42;;;;;;;19.63;16.00;;;;;;;1.13;nan;98638.69;5083835;28;20198;-61
2021/01/30 00:55:09;;;;;;;19.10;15.00;;;;;;;1.01;nan;98639.66;5077836;28;20297;-61
2021/01/30 00:57:35;;;;;;;21.10;14.13;;;;;;;0.99;nan;98646.84;5079922;28;20448;-62
2021/01/30 01:00:02;;;;;;;22.48;17.70;;;;;;;1.02;nan;98654.47;5067336;28;20444;-61
2021/01/30 01:02:28;;;;;;;19.48;16.67;;;;;;;1.13;nan;98657.13;5076632;28;20230;-61
2021/01/30 01:04:54;;;;;;;21.17;16.63;;;;;;;1.10;nan;98672.31;5075154;28;20238;-61
2021/01/30 01:07:21;;;;;;;18.07;15.33;;;;;;;1.08;nan;98671.59;5082150;28;20479;-62
2021/01/30 01:09:47;;;;;;;17.07;14.87;;;;;;;1.02;nan;98677.31;5076859;28;20445;-62
2021/01/30 01:12:13;;;;;;;17.60;14.83;;;;;;;1.06;nan;98690.13;5074327;28;20904;-62
2021/01/30 01:14:40;;;;;;;17.67;13.85;;;;;;;1.01;nan;98697.56;5073835;28;20497;-62
2021/01/30 01:17:06;;;;;;;16.73;12.87;;;;;;;0.88;nan;98700.28;5076686;28;20261;-62
2021/01/30 01:19:32;;;;;;;16.50;13.07;;;;;;;0.96;nan;98704.97;5081738;28;20455;-61
2021/01/30 01:21:58;;;;;;;15.20;12.30;;;;;;;1.03;nan;98711.44;5081469;28;20467;-62
2021/01/30 01:24:25;;;;;;;14.80;12.67;;;;;;;1.00;nan;98716.09;5073662;28;20449;-62
2021/01/30 01:26:52;;;;;;;14.48;12.80;;;;;;;1.16;nan;98724.47;5071555;28;20485;-62
2021/01/30 01:29:21;;;;;;;13.50;12.10;;;;;;;0.89;nan;98744.06;5080573;28;20209;-62
2021/01/30 01:31:52;;;;;;;15.82;12.07;;;;;;;1.20;nan;98739.09;5071730;28;20480;-62
2021/01/30 01:34:20;;;;;;;13.67;11.20;;;;;;;1.32;nan;98745.19;5062515;28;20222;-62
2021/01/30 01:36:52;;;;;;;13.90;10.87;;;;;;;1.48;nan;98750.94;5065747;28;20502;-62
2021/01/30 01:39:19;;;;;;;10.57;8.70;;;;;;;1.28;nan;98756.91;5080430;28;20444;-62
2021/01/30 01:41:51;;;;;;;11.45;10.25;;;;;;;1.27;nan;98765.78;5064471;28;20488;-62
2021/01/30 01:44:17;;;;;;;12.13;9.37;;;;;;;1.24;nan;98766.00;5079615;28;20214;-62
2021/01/30 01:46:43;;;;;;;9.80;8.80;;;;;;;1.27;nan;98773.69;5071911;28;20484;-62
2021/01/30 01:49:14;;;;;;;11.97;10.07;;;;;;;1.24;nan;98787.06;5061773;28;20456;-62
2021/01/30 01:51:42;;;;;;;10.00;8.50;;;;;;;0.84;nan;98775.13;5064644;28;20511;-62
2021/01/30 01:54:12;;;;;;;13.70;10.10;;;;;;;1.17;nan;98781.44;5065418;28;20203;-62
2021/01/30 01:56:39;;;;;;;12.87;9.93;;;;;;;1.49;nan;98771.06;5067579;28;20484;-63
2021/01/30 01:59:10;;;;;;;9.73;8.70;;;;;;;1.17;nan;98786.69;5060827;28;20460;-62
2021/01/30 02:01:37;;;;;;;9.53;8.50;;;;;;;1.08;nan;98785.59;5075690;28;20279;-62
2021/01/30 02:04:07;;;;;;;10.23;9.07;;;;;;;1.02;nan;98787.84;5081132;28;20447;-62
2021/01/30 02:06:36;;;;;;;10.40;9.30;;;;;;;0.91;nan;98810.56;5080182;28;20482;-62
2021/01/30 02:09:06;;;;;;;9.05;8.25;;;;;;;1.10;nan;98806.56;5081008;28;20473;-62
2021/01/30 02:11:32;;;;;;;10.27;8.20;;;;;;;0.96;nan;98799.69;5075370;28;20257;-62
2021/01/30 02:13:58;;;;;;;7.93;7.13;;;;;;;0.86;nan;98799.53;5063422;28;20202;-62
2021/01/30 02:16:34;;;;;;;9.00;7.90;;;;;;;0.84;nan;98808.50;5066999;28;20476;-62
2021/01/30 02:19:22;;;;;;;6.57;5.97;;;;;;;1.02;nan;98809.75;5081219;28;20749;-62
2021/01/30 02:22:15;;;;;;;6.93;6.23;;;;;;;1.15;nan;98812.31;5065072;28;20236;-62
2021/01/30 02:25:05;;;;;;;6.90;6.28;;;;;;;1.05;nan;98801.63;5072200;28;20460;-62
2021/01/30 02:27:49;;;;;;;7.38;6.68;;;;;;;0.80;nan;98812.31;5070770;28;20252;-62
2021/01/30 02:30:53;;;;;;;7.95;7.03;;;;;;;0.73;nan;98823.28;5065701;28;20233;-61
2021/01/30 02:33:52;;;;;;;7.13;6.43;;;;;;;0.53;nan;98822.13;5070506;28;20217;-62
2021/01/30 02:36:27;;;;;;;6.17;5.60;;;;;;;0.60;nan;98826.94;5035003;28;20238;-61
2021/01/30 02:38:57;;;;;;;7.07;6.20;;;;;;;0.60;nan;98821.69;5061196;28;20460;-62
2021/01/30 02:41:27;;;;;;;7.53;6.10;;;;;;;0.75;nan;98810.88;5070336;28;20476;-62
2021/01/30 02:43:55;;;;;;;6.97;6.30;;;;;;;0.77;nan;98826.53;5070502;28;20205;-61
2021/01/30 02:46:25;;;;;;;6.70;6.10;;;;;;;0.66;nan;98829.09;5074234;28;20254;-65
2021/01/30 02:48:55;;;;;;;6.72;6.13;;;;;;;0.63;nan;98831.97;5078913;28;20431;-61
2021/01/30 02:51:26;;;;;;;7.03;6.32;;;;;;;0.48;nan;98844.44;5080450;28;20296;-61
2021/01/30 02:53:54;;;;;;;6.68;6.00;;;;;;;0.87;nan;98850.38;5067546;28;20205;-61
2021/01/30 02:56:21;;;;;;;6.55;5.90;;;;;;;0.82;nan;98855.16;5072606;28;20655;-61
2021/01/30 02:58:52;;;;;;;6.03;5.43;;;;;;;0.72;nan;98858.44;5069019;28;20213;-61
2021/01/30 03:01:18;;;;;;;7.13;6.28;;;;;;;0.51;nan;98860.00;5071848;28;20487;-61
2021/01/30 03:03:45;;;;;;;5.85;5.30;;;;;;;0.59;nan;98862.94;5081215;28;20595;-62
2021/01/30 03:06:22;;;;;;;6.65;5.95;;;;;;;0.67;nan;98863.19;5080159;28;20291;-61
2021/01/30 03:08:57;;;;;;;6.65;5.95;;;;;;;0.83;nan;98872.59;5075966;28;20240;-61
2021/01/30 03:11:26;;;;;;;6.03;5.43;;;;;;;0.72;nan;98874.22;5074932;28;20233;-61
2021/01/30 03:13:56;;;;;;;7.05;6.35;;;;;;;0.79;nan;98879.03;5076814;28;20213;-61
2021/01/30 03:16:25;;;;;;;6.07;5.47;;;;;;;0.70;nan;98884.00;5078419;28;20238;-61
2021/01/30 03:18:54;;;;;;;7.70;6.50;;;;;;;0.63;nan;98882.78;5064733;28;20398;-62
2021/01/30 03:21:22;;;;;;;7.70;6.03;;;;;;;0.67;nan;98881.59;5064712;28;20260;-61
2021/01/30 03:23:48;;;;;;;7.32;6.63;;;;;;;0.84;nan;98890.06;5085483;28;20190;-61
2021/01/30 03:26:18;;;;;;;8.25;6.90;;;;;;;1.08;nan;98893.50;5082419;28;20669;-61
2021/01/30 03:28:45;;;;;;;7.77;7.00;;;;;;;0.96;nan;98896.22;5083714;28;20270;-62
2021/01/30 03:31:11;;;;;;;9.13;6.18;;;;;;;0.79;nan;98900.91;5073260;28;20539;-62
2021/01/30 03:33:38;;;;;;;8.10;6.80;;;;;;;0.74;nan;98905.69;5073404;28;20234;-62
2021/01/30 03:36:05;;;;;;;8.52;7.30;;;;;;;0.47;nan;98908.50;5063405;28;20515;-61
2021/01/30 03:38:31;;;;;;;7.35;6.65;;;;;;;0.58;nan;98905.94;5083246;28;20218;-61
2021/01/30 03:40:57;;;;;;;9.07;7.03;;;;;;;0.59;nan;98912.03;5082321;28;20240;-62
2021/01/30 03:43:25;;;;;;;8.40;6.82;;;;;;;0.61;nan;98916.25;5075949;28;20199;-62
2021/01/30 03:45:51;;;;;;;10.57;8.13;;;;;;;0.55;nan;98911.41;5067050;28;20254;-62
2021/01/30 03:48:17;;;;;;;13.43;7.85;;;;;;;0.45;nan;98921.78;5074822;28;20277;-61
2021/01/30 03:50:43;;;;;;;8.50;7.18;;;;;;;0.65;nan;98927.38;5071355;28;20261;-62
2021/01/30 03:53:09;;;;;;;9.32;7.90;;;;;;;0.75;nan;98931.03;5084431;28;20209;-62
2021/01/30 03:55:36;;;;;;;8.30;7.47;;;;;;;0.68;nan;98937.69;5079768;28;20233;-62
2021/01/30 03:58:02;;;;;;;8.52;7.65;;;;;;;0.49;nan;98941.63;5083640;28;20198;-61
2021/01/30 04:00:29;;;;;;;8.70;7.03;;;;;;;0.33;nan;98941.88;5071473;28;20233;-62
2021/01/30 04:02:55;;;;;;;8.65;7.63;;;;;;;0.36;nan;98946.94;5075112;28;21141;-61
2021/01/30 04:05:23;;;;;;;8.60;7.70;;;;;;;0.65;nan;98953.69;5070934;28;20256;-62
2021/01/30 04:07:50;;;;;;;8.73;7.82;;;;;;;0.42;nan;98955.31;5083887;28;20232;-61
2021/01/30 04:10:20;;;;;;;9.70;8.02;;;;;;;0.53;nan;98952.78;5081369;28;20214;-61
2021/01/30 04:12:46;;;;;;;9.88;8.45;;;;;;;0.57;nan;98954.22;5067343;28;20204;-62
2021/01/30 04:15:13;;;;;;;12.40;9.43;;;;;;;0.67;nan;98963.13;5081106;28;20198;-62
2021/01/30 04:17:40;;;;;;;9.20;7.95;;;;;;;0.67;nan;98960.50;5071941;28;20190;-61
2021/01/30 04:20:08;;;;;;;8.73;7.75;;;;;;;0.50;nan;98956.44;5068713;28;20221;-62
2021/01/30 04:22:34;;;;;;;10.05;8.65;;;;;;;0.54;nan;98952.66;5074363;28;20251;-62
2021/01/30 04:25:00;;;;;;;10.18;8.35;;;;;;;0.37;nan;98956.47;5076182;28;20205;-62
2021/01/30 04:27:27;;;;;;;11.80;9.75;;;;;;;0.52;nan;98965.09;5072517;28;20241;-62
2021/01/30 04:29:53;;;;;;;9.63;8.55;;;;;;;0.55;nan;98964.00;5069282;28;20238;-61
2021/01/30 04:32:20;;;;;;;13.50;9.30;;;;;;;0.38;nan;98970.44;5078755;28;20259;-61
2021/01/30 04:34:47;;;;;;;11.30;8.70;;;;;;;0.69;nan;98971.75;5076525;28;20205;-61
2021/01/30 04:37:13;;;;;;;9.75;8.55;;;;;;;0.67;nan;98975.47;5077043;28;20226;-62
2021/01/30 04:39:39;;;;;;;10.40;9.02;;;;;;;0.29;nan;98976.38;5065033;28;20207;-62
2021/01/30 04:42:09;;;;;;;11.70;9.43;;;;;;;0.54;nan;98978.13;5080007;28;20229;-62
2021/01/30 04:44:48;;;;;;;11.35;9.20;;;;;;;0.58;nan;98974.31;5072698;28;20222;-62
2021/01/30 04:47:33;;;;;;;12.02;9.40;;;;;;;0.39;nan;98974.78;5070833;28;20272;-62
2021/01/30 04:50:06;;;;;;;10.48;8.45;;;;;;;0.28;nan;98975.53;5063129;28;20233;-62
2021/01/30 04:52:42;;;;;;;11.18;9.23;;;;;;;0.50;nan;98976.66;5070046;28;20229;-62
2021/01/30 04:55:22;;;;;;;10.82;8.60;;;;;;;0.63;nan;98974.84;5076959;28;20206;-61
2021/01/30 04:57:57;;;;;;;9.57;8.57;;;;;;;0.67;nan;98985.97;5070220;28;20236;-62
2021/01/30 05:00:39;;;;;;;12.38;9.57;;;;;;;0.42;nan;98992.09;5062545;28;20210;-62
2021/01/30 05:03:19;;;;;;;9.50;8.45;;;;;;;0.23;nan;98992.56;5072920;28;20198;-61
2021/01/30 05:05:48;;;;;;;11.38;9.02;;;;;;;0.34;nan;98992.66;5081515;28;20241;-62
2021/01/30 05:08:19;;;;;;;11.57;9.50;;;;;;;0.46;nan;98991.81;5082549;28;20202;-62
2021/01/30 05:10:51;;;;;;;11.70;8.30;;;;;;;0.49;nan;98986.34;5073986;28;20256;-62
2021/01/30 05:13:23;;;;;;;12.93;9.25;;;;;;;0.15;nan;98990.47;5066344;28;20195;-62
2021/01/30 05:15:52;;;;;;;10.70;8.73;;;;;;;0.33;nan;98994.47;5068162;28;20271;-62
2021/01/30 05:18:21;;;;;;;15.07;11.90;;;;;;;0.25;nan;98996.78;5062845;28;20230;-62
2021/01/30 05:20:50;;;;;;;17.33;11.45;;;;;;;0.47;nan;98998.75;5074127;28;20249;-62
2021/01/30 05:23:17;;;;;;;11.82;9.63;;;;;;;0.42;nan;99000.00;5082820;28;20194;-62
2021/01/30 05:25:44;;;;;;;15.63;10.55;;;;;;;0.43;nan;99001.69;5071299;28;20241;-62
2021/01/30 05:28:27;;;;;;;15.80;11.35;;;;;;;0.32;nan;99005.06;5081865;28;20237;-62
2021/01/30 05:31:01;;;;;;;14.70;10.67;;;;;;;0.35;nan;99015.38;5079374;28;20292;-62
2021/01/30 05:33:37;;;;;;;14.13;10.90;;;;;;;0.42;nan;99018.41;5073316;28;20507;-62
2021/01/30 05:36:09;;;;;;;15.48;11.52;;;;;;;0.47;nan;99029.44;5061747;28;20503;-62
2021/01/30 05:38:47;;;;;;;12.80;10.60;;;;;;;0.45;nan;99026.09;5074931;28;20213;-62
2021/01/30 05:41:18;;;;;;;14.05;11.63;;;;;;;0.71;nan;99033.00;5068634;28;20246;-62
2021/01/30 05:43:49;;;;;;;14.43;11.30;;;;;;;0.81;nan;99027.91;5069200;28;20203;-62
2021/01/30 05:46:21;;;;;;;16.10;11.93;;;;;;;0.54;nan;99030.72;5070009;28;20261;-62
2021/01/30 05:48:48;;;;;;;16.20;12.45;;;;;;;0.61;nan;99031.13;5062540;28;20254;-62
2021/01/30 05:51:19;;;;;;;14.93;12.15;;;;;;;0.51;nan;99038.81;5061027;28;20233;-62
2021/01/30 05:53:46;;;;;;;14.40;11.00;;;;;;;0.62;nan;99041.53;5073035;28;20225;-62
2021/01/30 05:56:12;;;;;;;17.48;12.80;;;;;;;0.48;nan;99039.84;5072084;28;20237;-62
2021/01/30 05:58:41;;;;;;;18.25;12.43;;;;;;;0.37;nan;99043.25;5068946;28;20203;-62
2021/01/30 06:01:22;;;;;;;15.27;11.80;;;;;;;0.62;nan;99038.91;5072705;28;20316;-62
2021/01/30 06:03:57;;;;;;;14.02;10.55;;;;;;;0.62;nan;99038.06;5075209;28;20659;-62
2021/01/30 06:06:25;;;;;;;16.58;12.15;;;;;;;0.53;nan;99029.03;5080207;28;20264;-61
2021/01/30 06:08:56;;;;;;;22.95;12.73;;;;;;;0.51;nan;99038.81;5082009;28;20216;-62
2021/01/30 06:11:22;;;;;;;15.40;11.88;;;;;;;0.51;nan;99039.66;5074901;28;20253;-62
2021/01/30 06:13:53;;;;;;;17.48;12.68;;;;;;;0.56;nan;99039.34;5072444;28;20229;-61
2021/01/30 06:16:39;;;;;;;17.20;12.45;;;;;;;0.63;nan;99027.44;5065804;28;20582;-61
2021/01/30 06:19:14;;;;;;;18.63;13.07;;;;;;;0.59;nan;99038.28;5076472;28;20220;-61
2021/01/30 06:21:42;;;;;;;15.90;12.65;;;;;;;0.61;nan;99033.75;5076002;28;20278;-62
2021/01/30 06:24:10;;;;;;;19.58;13.13;;;;;;;0.48;nan;99041.66;5081507;28;20209;-62
2021/01/30 06:26:41;;;;;;;17.48;12.10;;;;;;;0.43;nan;99039.34;5071393;28;20299;-61
2021/01/30 06:29:22;;;;;;;16.20;12.20;;;;;;;0.42;nan;99047.31;5077143;28;20258;-62
2021/01/30 06:31:48;;;;;;;17.48;13.02;;;;;;;0.54;nan;99051.75;5073670;28;20252;-62
2021/01/30 06:34:23;;;;;;;19.08;14.05;;;;;;;0.50;nan;99047.66;5065342;28;20563;-62
2021/01/30 06:36:52;;;;;;;19.23;12.25;;;;;;;0.61;nan;99044.25;5074391;28;20227;-62
2021/01/30 06:39:24;;;;;;;21.08;13.77;;;;;;;0.85;nan;99050.47;5081372;28;20214;-62
2021/01/30 06:41:52;;;;;;;18.73;13.85;;;;;;;0.60;nan;99048.69;5077430;28;20588;-62
2021/01/30 06:44:23;;;;;;;16.50;12.43;;;;;;;0.59;nan;99059.31;5071630;28;20669;-62
2021/01/30 06:47:06;;;;;;;19.70;14.52;;;;;;;0.50;nan;99055.53;5069323;28;20244;-62
2021/01/30 06:49:34;;;;;;;18.67;13.40;;;;;;;0.70;nan;99065.50;5074328;28;20617;-62
2021/01/30 06:52:09;;;;;;;21.08;14.00;;;;;;;0.66;nan;99055.31;5079947;28;20846;-62
2021/01/30 06:54:36;;;;;;;18.33;13.68;;;;;;;0.88;nan;99062.53;5069243;28;20232;-63
2021/01/30 06:57:05;;;;;;;18.98;13.88;;;;;;;0.96;nan;99062.84;5063002;28;20656;-61
2021/01/30 06:59:34;;;;;;;19.02;14.38;;;;;;;0.88;nan;99070.44;5069826;28;20202;-61
2021/01/30 07:02:01;;;;;;;20.98;14.93;;;;;;;0.81;nan;99074.44;5070967;28;20232;-62
2021/01/30 07:05:15;;;;;;;20.27;13.13;;;;;;;0.73;nan;99070.56;5080954;28;20695;-63
2021/01/30 07:07:53;;;;;;;20.92;14.50;;;;;;;0.80;nan;99076.25;5054304;28;20225;-63
2021/01/30 07:10:27;;;;;;;17.17;13.02;;;;;;;0.63;nan;99076.59;5066013;28;20197;-63
2021/01/30 07:13:17;;;;;;;21.63;15.13;;;;;;;0.29;nan;99065.75;5063646;28;20198;-62
2021/01/30 07:15:51;;;;;;;24.05;15.38;;;;;;;0.41;nan;99071.97;5075476;28;20261;-62
2021/01/30 07:18:28;;;;;;;23.05;15.73;;;;;;;0.50;nan;99080.03;5069124;28;20189;-62
2021/01/30 07:21:09;;;;;;;26.98;16.20;;;;;;;0.49;nan;99075.75;5079344;28;20229;-63
2021/01/30 07:23:43;;;;;;;25.10;15.27;;;;;;;0.52;nan;99072.91;5080853;28;20198;-62
2021/01/30 07:26:15;;;;;;;23.08;15.88;;;;;;;0.51;nan;99073.00;5066157;28;20492;-63
2021/01/30 07:28:44;;;;;;;21.23;14.27;;;;;;;0.53;nan;99076.38;5070065;28;20585;-63
2021/01/30 07:31:13;;;;;;;19.60;14.05;;;;;;;0.52;nan;99072.03;5075696;28;21010;-62
2021/01/30 07:33:51;;;;;;;24.17;15.10;;;;;;;0.44;nan;99077.84;5077291;28;20236;-63
2021/01/30 07:36:22;;;;;;;23.63;14.32;;;;;;;0.52;nan;99074.69;5059573;28;20472;-63
2021/01/30 07:38:54;;;;;;;23.63;14.97;;;;;;;0.77;nan;99070.38;5063913;28;20191;-63
2021/01/30 07:41:25;;;;;;;23.80;14.67;;;;;;;0.93;nan;99079.69;5078446;28;20498;-63
2021/01/30 07:43:55;;;;;;;29.25;19.23;;;;;;;0.99;nan;99067.91;5079365;28;20447;-63
2021/01/30 07:46:25;;;;;;;23.70;15.20;;;;;;;1.27;nan;99071.19;5071235;28;20226;-63
2021/01/30 07:48:53;;;;;;;21.40;14.57;;;;;;;1.13;nan;99072.19;5068676;28;20999;-63
2021/01/30 07:51:22;;;;;;;22.08;14.65;;;;;;;1.32;nan;99074.34;5071473;28;20487;-63
2021/01/30 07:53:50;;;;;;;21.17;14.50;;;;;;;1.10;nan;99069.75;5060561;28;20199;-62
2021/01/30 07:56:46;;;;;;;20.57;13.93;;;;;;;1.00;nan;99063.47;5068035;28;20474;-63
2021/01/30 07:59:30;;;;;;;24.30;15.27;;;;;;;1.04;nan;99078.06;5065273;28;20452;-63
2021/01/30 08:02:30;;;;;;;22.98;15.18;;;;;;;1.15;nan;99075.53;5071900;28;20559;-63
2021/01/30 08:05:19;;;;;;;21.17;14.80;;;;;;;1.44;nan;99083.13;5075315;28;20221;-63
2021/01/30 08:07:48;;;;;;;21.33;14.83;;;;;;;1.47;nan;99075.81;5055072;28;20457;-63
2021/01/30 08:10:22;;;;;;;21.27;14.30;;;;;;;1.20;nan;99073.41;5047390;28;20453;-63
2021/01/30 08:12:57;;;;;;;19.23;13.03;;;;;;;1.05;nan;99074.50;5052615;28;20210;-63
2021/01/30 08:15:28;;;;;;;19.03;13.07;;;;;;;1.55;nan;99085.00;5048863;28;20449;-62
2021/01/30 08:18:08;;;;;;;20.53;12.67;;;;;;;1.42;nan;99072.69;5062520;28;20440;-63
2021/01/30 08:20:39;;;;;;;16.47;12.00;;;;;;;0.80;nan;99093.81;5059441;28;20468;-62
2021/01/30 08:23:13;;;;;;;16.40;10.13;;;;;;;1.09;nan;99079.47;5074381;28;20464;-63
2021/01/30 08:25:45;;;;;;;16.92;10.73;;;;;;;1.17;nan;99084.16;5074782;28;20249;-63
2021/01/30 08:28:16;;;;;;;15.93;11.03;;;;;;;1.06;nan;99081.44;5071142;28;20218;-63
2021/01/30 08:30:44;;;;;;;13.77;9.73;;;;;;;1.34;nan;99084.72;5073907;28;20739;-62
2021/01/30 08:33:10;;;;;;;18.37;11.57;;;;;;;1.08;nan;99088.28;5067422;28;20461;-62
2021/01/30 08:35:55;;;;;;;17.27;11.80;;;;;;;1.07;nan;99091.84;5082261;28;20467;-62
2021/01/30 08:38:33;;;;;;;17.88;12.05;;;;;;;1.17;nan;99086.78;5080018;28;20244;-62
2021/01/30 08:41:13;;;;;;;18.83;11.67;;;;;;;1.17;nan;99089.44;5061013;28;20230;-63
2021/01/30 08:43:43;;;;;;;17.50;10.57;;;;;;;0.86;nan;99082.88;5076238;28;20439;-62
2021/01/30 08:46:20;;;;;;;14.93;10.05;;;;;;;1.15;nan;99085.19;5065293;28;20473;-62
2021/01/30 08:49:04;;;;;;;19.53;11.50;;;;;;;1.08;nan;99093.56;5078752;28;20229;-62
2021/01/30 08:51:30;;;;;;;16.33;10.83;;;;;;;0.82;nan;99097.19;5066570;28;20467;-62
2021/01/30 08:53:57;;;;;;;17.23;11.17;;;;;;;1.09;nan;99087.34;5078224;28;20474;-62
2021/01/30 08:56:46;;;;;;;14.43;10.33;;;;;;;1.15;nan;99106.25;5071843;28;20489;-62
2021/01/30 08:59:40;;;;;;;14.07;10.43;;;;;;;1.27;nan;99103.63;5069567;28;20529;-62
2021/01/30 09:02:09;;;;;;;12.73;9.25;;;;;;;1.24;nan;99100.38;5073544;28;20471;-63
2021/01/30 09:04:45;;;;;;;13.80;10.37;;;;;;;1.27;nan;99098.34;5062952;28;20225;-63
2021/01/30 09:07:40;;;;;;;12.70;9.30;;;;;;;1.26;nan;99095.81;5061901;28;20486;-62
2021/01/30 09:10:35;;;;;;;11.37;8.27;;;;;;;1.46;nan;99100.50;5076763;28;20485;-62
2021/01/30 09:13:06;;;;;;;11.47;8.70;;;;;;;1.68;nan;99097.16;5066086;28;20579;-62
2021/01/30 09:15:54;;;;;;;13.50;9.40;;;;;;;1.50;nan;99101.94;5062662;28;20568;-63
2021/01/30 09:18:28;;;;;;;12.23;10.00;;;;;;;1.45;nan;99108.50;5075484;28;20468;-63
2021/01/30 09:20:57;;;;;;;14.43;10.30;;;;;;;1.60;nan;99109.19;5080829;28;20482;-63
2021/01/30 09:23:32;;;;;;;13.83;8.23;;;;;;;1.81;nan;99106.78;5072625;28;20441;-62
2021/01/30 09:26:01;;;;;;;14.50;9.30;;;;;;;2.04;nan;99102.44;5067648;28;20483;-62
2021/01/30 09:28:31;;;;;;;9.97;8.00;;;;;;;2.15;nan;99104.25;5075843;28;20463;-62
2021/01/30 09:31:00;;;;;;;11.97;9.30;;;;;;;2.25;nan;99107.88;5063195;28;20498;-63
2021/01/30 09:33:29;;;;;;;11.80;8.30;;;;;;;2.54;nan;99100.41;5075122;28;20445;-63
2021/01/30 09:36:07;;;;;;;9.60;8.33;;;;;;;3.62;nan;99105.13;5070454;28;20473;-62
2021/01/30 09:38:36;;;;;;;10.70;8.27;;;;;;;5.06;nan;99110.69;5070728;28;20441;-62
2021/01/30 09:41:07;;;;;;;10.90;9.03;;;;;;;5.44;nan;99106.47;5070380;28;20480;-62
2021/01/30 09:43:34;;;;;;;10.93;8.27;;;;;;;5.38;nan;99100.88;5070073;28;20439;-62
2021/01/30 09:46:03;;;;;;;9.67;7.30;;;;;;;5.62;nan;99111.13;5074224;28;20484;-62
2021/01/30 09:48:29;;;;;;;9.33;7.03;;;;;;;5.64;nan;99106.50;5077554;28;20483;-63
2021/01/30 09:50:58;;;;;;;8.70;7.03;;;;;;;4.70;nan;99102.31;5075610;28;20476;-63
2021/01/30 09:53:27;;;;;;;8.77;7.87;;;;;;;5.38;nan;99104.38;5070486;28;20448;-62
2021/01/30 09:56:04;;;;;;;9.67;8.33;;;;;;;5.10;nan;99108.59;5078367;28;21168;-62
2021/01/30 09:58:30;;;;;;;8.70;6.90;;;;;;;4.60;nan;99104.06;5067660;28;20439;-63
2021/01/30 10:01:04;;;;;;;8.10;7.07;;;;;;;4.71;nan;99100.50;5077323;28;20475;-63
2021/01/30 10:03:35;;;;;;;9.37;8.20;;;;;;;4.69;nan;99095.34;5071240;28;20449;-64
2021/01/30 10:06:09;;;;;;;8.23;7.13;;;;;;;4.23;nan;99099.22;5076469;28;20998;-61
2021/01/30 10:08:36;;;;;;;10.67;7.97;;;;;;;3.90;nan;99087.00;5081305;28;20444;-63
2021/01/30 10:11:06;;;;;;;8.97;7.77;;;;;;;3.71;nan;99096.44;5074196;28;20479;-63
2021/01/30 10:13:32;;;;;;;11.30;9.50;;;;;;;3.26;nan;99101.00;5080045;28;20459;-61
2021/01/30 10:16:03;;;;;;;13.83;9.07;;;;;;;3.51;nan;99102.53;5080111;28;20471;-62
2021/01/30 10:18:31;;;;;;;11.23;8.60;;;;;;;3.25;nan;99096.69;5076630;28;20455;-62
2021/01/30 10:21:01;;;;;;;10.43;8.50;;;;;;;3.18;nan;99091.06;5077119;28;20477;-62
2021/01/30 10:23:30;;;;;;;10.80;8.17;;;;;;;3.28;nan;99089.34;5079461;28;20448;-62
2021/01/30 10:26:07;;;;;;;10.90;8.03;;;;;;;3.14;nan;99100.16;5064763;28;20991;-62
2021/01/30 10:28:41;;;;;;;9.77;8.10;;;;;;;2.76;nan;99093.44;5078759;28;20865;-62
2021/01/30 10:31:09;;;;;;;12.27;8.87;;;;;;;3.06;nan;99090.22;5078754;28;20490;-62
2021/01/30 10:33:36;;;;;;;11.33;9.20;;;;;;;3.32;nan;99098.72;5076358;28;20803;-63
2021/01/30 10:36:02;;;;;;;10.30;7.97;;;;;;;3.21;nan;99090.78;5066868;28;20511;-62
2021/01/30 10:38:30;;;;;;;11.30;7.93;;;;;;;3.47;nan;99085.22;5070298;28;20966;-61
2021/01/30 10:40:58;;;;;;;11.47;8.73;;;;;;;3.28;nan;99085.84;5077286;28;20472;-63
2021/01/30 10:43:27;;;;;;;10.10;7.53;;;;;;;2.63;nan;99094.41;5058712;28;20463;-62
2021/01/30 10:45:55;;;;;;;9.70;7.73;;;;;;;2.86;nan;99085.66;5067450;28;20553;-62
2021/01/30 10:48:24;;;;;;;10.73;7.90;;;;;;;2.87;nan;99088.19;5080237;28;20490;-62
2021/01/30 10:50:51;;;;;;;10.67;8.00;;;;;;;2.66;nan;99084.56;5063381;28;20460;-63
2021/01/30 10:53:23;;;;;;;11.77;9.90;;;;;;;2.54;nan;99081.94;5077150;28;20451;-63
2021/01/30 10:55:50;;;;;;;12.10;8.40;;;;;;;2.56;nan;99082.66;5066857;28;20498;-63
2021/01/30 10:58:19;;;;;;;11.10;8.23;;;;;;;2.65;nan;99081.09;5060193;28;20424;-63
2021/01/30 11:00:55;;;;;;;10.60;8.00;;;;;;;2.57;nan;99079.06;5065752;28;20481;-63
2021/01/30 11:03:25;;;;;;;10.70;8.30;;;;;;;2.74;nan;99076.91;5075112;28;20445;-63
2021/01/30 11:05:51;;;;;;;10.50;7.30;;;;;;;2.65;nan;99070.53;5074114;28;20566;-62
2021/01/30 11:08:25;;;;;;;12.33;8.97;;;;;;;2.70;nan;99068.38;5062969;28;20449;-61
2021/01/30 11:11:00;;;;;;;13.37;8.27;;;;;;;2.48;nan;99071.84;5057069;28;20917;-63
2021/01/30 11:13:30;;;;;;;13.03;8.10;;;;;;;2.74;nan;99069.84;5070826;28;20463;-64
2021/01/30 11:16:14;;;;;;;13.87;8.20;;;;;;;2.53;nan;99079.41;5077150;28;20479;-63
2021/01/30 11:18:47;;;;;;;10.90;7.67;;;;;;;2.50;nan;99075.22;5072040;28;20478;-63
2021/01/30 11:21:14;;;;;;;14.60;7.90;;;;;;;2.46;nan;99079.03;5075919;28;20540;-63
2021/01/30 11:23:46;;;;;;;13.33;8.37;;;;;;;2.50;nan;99077.84;5068738;28;20507;-63
2021/01/30 11:26:16;;;;;;;9.83;7.40;;;;;;;2.31;nan;99078.44;5072661;28;20578;-62
2021/01/30 11:28:43;;;;;;;10.20;7.40;;;;;;;2.38;nan;99065.63;5059385;28;20441;-63
2021/01/30 11:31:10;;;;;;;10.37;7.57;;;;;;;2.45;nan;99059.75;5072404;28;20475;-63
2021/01/30 11:33:36;;;;;;;12.20;8.23;;;;;;;2.37;nan;99069.19;5073979;28;20448;-63
2021/01/30 11:36:05;;;;;;;12.20;7.57;;;;;;;2.43;nan;99058.16;5073176;28;20472;-62
2021/01/30 11:38:31;;;;;;;7.93;6.30;;;;;;;2.38;nan;99047.16;5076045;28;20448;-62
2021/01/30 11:40:59;;;;;;;9.27;7.17;;;;;;;2.50;nan;99045.34;5075051;28;20467;-63
2021/01/30 11:43:26;;;;;;;9.50;7.37;;;;;;;2.74;nan;99047.88;5070973;28;20462;-62
2021/01/30 11:45:53;;;;;;;11.50;8.87;;;;;;;3.03;nan;99044.75;5079025;28;20476;-63
2021/01/30 11:48:21;;;;;;;12.00;6.47;;;;;;;3.33;nan;99044.94;5074286;28;20912;-62
2021/01/30 11:50:49;;;;;;;9.37;6.17;;;;;;;3.04;nan;99046.41;5080796;28;21044;-63
2021/01/30 11:53:18;;;;;;;8.30;6.10;;;;;;;3.22;nan;99036.19;5073377;28;20443;-62
2021/01/30 11:55:45;;;;;;;13.40;7.83;;;;;;;3.25;nan;99033.31;5082044;28;20494;-63
2021/01/30 11:58:12;;;;;;;7.90;6.40;;;;;;;2.79;nan;99040.44;5082395;28;20444;-63
2021/01/30 12:00:38;;;;;;;10.10;7.10;;;;;;;2.90;nan;99037.78;5079190;28;20475;-62
2021/01/30 12:03:05;;;;;;;8.07;6.50;;;;;;;3.15;nan;99036.66;5081415;28;20498;-63
2021/01/30 12:05:32;;;;;;;8.63;6.90;;;;;;;2.99;nan;99038.88;5075874;28;20480;-62
2021/01/30 12:07:58;;;;;;;9.37;7.33;;;;;;;3.33;nan;99031.72;5071962;28;20886;-63